createdAt,value
2018-04-27T07:05:46.261Z,281.25
2018-04-27T07:06:46.174Z,286.88
2018-04-27T07:07:46.098Z,298.13
2018-04-27T07:08:46.023Z,309.38
2018-04-27T07:09:45.937Z,315.00
2018-04-27T07:10:45.861Z,315.00
2018-04-27T07:11:45.776Z,303.75
2018-04-27T07:12:45.700Z,286.88
2018-04-27T07:13:45.613Z,320.63
2018-04-27T07:14:45.538Z,309.38
2018-04-27T07:15:45.450Z,315.00
2018-04-27T07:16:45.376Z,376.88
2018-04-27T07:17:45.300Z,421.88
2018-04-27T07:18:45.213Z,461.25
2018-04-27T07:19:45.138Z,433.13
2018-04-27T07:20:45.052Z,455.63
2018-04-27T07:21:44.975Z,483.75
2018-04-27T07:22:44.900Z,421.88
2018-04-27T07:23:44.815Z,365.63
2018-04-27T07:24:44.739Z,343.13
2018-04-27T07:25:44.664Z,371.25
2018-04-27T07:26:44.590Z,376.88
2018-04-27T07:27:44.501Z,371.25
2018-04-27T07:28:44.426Z,466.88
2018-04-27T07:29:44.351Z,416.25
2018-04-27T07:30:44.267Z,455.63
2018-04-27T07:31:44.189Z,511.88
2018-04-27T07:32:44.116Z,517.50
2018-04-27T07:33:44.040Z,495.00
2018-04-27T07:34:43.952Z,556.88
2018-04-27T07:35:43.879Z,562.50
2018-04-27T07:36:43.802Z,590.63
2018-04-27T07:37:43.727Z,641.25
2018-04-27T07:38:43.641Z,607.50
2018-04-27T07:39:43.829Z,607.50
2018-04-27T07:40:43.490Z,568.13
2018-04-27T07:41:43.418Z,517.50
2018-04-27T07:42:43.340Z,506.25
2018-04-27T07:43:43.266Z,478.13
2018-04-27T07:44:43.191Z,450.00
2018-04-27T07:45:43.116Z,534.38
2018-04-27T07:46:43.027Z,556.88
2018-04-27T07:47:42.953Z,613.13
2018-04-27T07:48:42.877Z,573.75
2018-04-27T07:49:42.818Z,540.00
2018-04-27T07:50:42.727Z,495.00
2018-04-27T07:51:42.655Z,444.38
2018-04-27T07:52:42.578Z,427.50
2018-04-27T07:53:42.516Z,528.75
2018-04-27T07:54:42.417Z,573.75
2018-04-27T07:55:42.342Z,579.38
2018-04-27T07:56:42.266Z,573.75
2018-04-27T07:57:42.196Z,573.75
2018-04-27T07:58:42.117Z,601.88
2018-04-27T07:59:42.042Z,427.50
2018-04-27T08:00:41.967Z,624.38
2018-04-27T08:01:41.893Z,613.13
2018-04-27T08:02:41.817Z,624.38
2018-04-27T08:03:41.743Z,618.75
2018-04-27T08:04:41.668Z,680.63
2018-04-27T08:05:41.594Z,658.13
2018-04-27T08:06:41.520Z,641.25
2018-04-27T08:07:41.432Z,663.75
2018-04-27T08:08:41.368Z,646.88
2018-04-27T08:09:41.281Z,675.00
2018-04-27T08:10:41.206Z,686.25
2018-04-27T08:11:41.132Z,680.63
2018-04-27T08:12:41.068Z,601.88
2018-04-27T08:13:40.986Z,579.38
2018-04-27T08:14:40.907Z,624.38
2018-04-27T08:15:40.832Z,680.63
2018-04-27T08:16:40.769Z,641.25
2018-04-27T08:17:40.698Z,624.38
2018-04-27T08:18:40.657Z,635.63
2018-04-27T08:19:40.794Z,675.00
2018-04-27T08:20:40.469Z,697.50
2018-04-27T08:21:40.394Z,646.88
2018-04-27T08:22:40.320Z,630.00
2018-04-27T08:23:40.249Z,658.13
2018-04-27T08:24:40.249Z,697.50
2018-04-27T08:25:40.095Z,787.50
2018-04-27T08:26:40.020Z,826.88
2018-04-27T08:27:39.945Z,883.13
2018-04-27T08:28:39.874Z,877.50
2018-04-27T08:29:39.807Z,950.63
2018-04-27T08:30:39.732Z,905.63
2018-04-27T08:31:39.657Z,894.38
2018-04-27T08:32:39.595Z,866.25
2018-04-27T08:33:39.507Z,894.38
2018-04-27T08:34:39.431Z,916.88
2018-04-27T08:35:39.358Z,950.63
2018-04-27T08:36:39.295Z,1006.88
2018-04-27T08:37:39.224Z,1018.13
2018-04-27T08:38:39.146Z,1006.88
2018-04-27T08:39:39.070Z,984.38
2018-04-27T08:40:38.998Z,1068.75
2018-04-27T08:41:38.921Z,1080.00
2018-04-27T08:42:38.858Z,1215.00
2018-04-27T08:43:38.796Z,1440.00
2018-04-27T08:44:38.708Z,1614.38
2018-04-27T08:45:38.633Z,1873.13
2018-04-27T08:46:38.559Z,2182.50
2018-04-27T08:47:38.486Z,2283.75
2018-04-27T08:48:38.422Z,2379.38
2018-04-27T08:49:38.348Z,2368.13
2018-04-27T08:50:38.274Z,2480.63
2018-04-27T08:51:38.205Z,2553.75
2018-04-27T08:52:38.149Z,2587.50
2018-04-27T08:53:38.059Z,2840.63
2018-04-27T08:54:37.985Z,2885.63
2018-04-27T08:55:37.910Z,2885.63
2018-04-27T08:56:37.852Z,2430.00
2018-04-27T08:57:37.775Z,2373.75
2018-04-27T08:58:37.699Z,1535.63
2018-04-27T08:59:37.627Z,1186.88
2018-04-27T09:00:37.563Z,916.88
2018-04-27T09:01:37.486Z,765.00
2018-04-27T09:02:37.415Z,691.88
2018-04-27T09:03:37.350Z,646.88
2018-04-27T09:04:37.275Z,624.38
2018-04-27T09:05:37.201Z,630.00
2018-04-27T09:06:37.143Z,607.50
2018-04-27T09:07:37.063Z,596.25
2018-04-27T09:08:36.988Z,607.50
2018-04-27T09:09:36.915Z,618.75
2018-04-27T09:10:36.852Z,624.38
2018-04-27T09:11:36.778Z,630.00
2018-04-27T09:12:36.713Z,646.88
2018-04-27T09:13:36.639Z,652.50
2018-04-27T09:14:36.564Z,646.88
2018-04-27T09:15:36.503Z,669.38
2018-04-27T09:16:36.428Z,686.25
2018-04-27T09:17:36.360Z,708.75
2018-04-27T09:18:36.289Z,731.25
2018-04-27T09:19:36.215Z,759.38
2018-04-27T09:20:36.141Z,787.50
2018-04-27T09:21:36.136Z,742.50
2018-04-27T09:22:36.003Z,703.13
2018-04-27T09:23:35.940Z,714.38
2018-04-27T09:24:35.865Z,714.38
2018-04-27T09:25:35.791Z,742.50
2018-04-27T09:26:35.729Z,759.38
2018-04-27T09:27:35.654Z,793.13
2018-04-27T09:28:35.585Z,821.25
2018-04-27T09:29:35.516Z,613.13
2018-04-27T09:30:35.442Z,669.38
2018-04-27T09:31:35.379Z,523.13
2018-04-27T09:32:35.304Z,421.88
2018-04-27T09:33:35.230Z,568.13
2018-04-27T09:34:35.180Z,337.50
2018-04-27T09:35:35.091Z,433.13
2018-04-27T09:36:35.017Z,438.75
2018-04-27T09:37:34.956Z,444.38
2018-04-27T09:38:34.880Z,461.25
2018-04-27T09:39:34.804Z,798.75
2018-04-27T09:40:34.730Z,843.75
2018-04-27T09:41:34.671Z,916.88
2018-04-27T09:42:34.592Z,956.25
2018-04-27T09:43:34.517Z,900.00
2018-04-27T09:44:34.442Z,759.38
2018-04-27T09:45:34.368Z,551.25
2018-04-27T09:46:34.293Z,545.63
2018-04-27T09:47:34.219Z,416.25
2018-04-27T09:48:34.155Z,410.63
2018-04-27T09:49:34.080Z,450.00
2018-04-27T09:50:34.006Z,506.25
2018-04-27T09:51:33.931Z,905.63
2018-04-27T09:52:33.857Z,1462.50
2018-04-27T09:53:33.781Z,933.75
2018-04-27T09:54:33.706Z,556.88
2018-04-27T09:55:33.632Z,331.88
2018-04-27T09:56:33.557Z,360.00
2018-04-27T09:57:33.518Z,427.50
2018-04-27T09:58:33.406Z,399.38
2018-04-27T09:59:33.331Z,421.88
2018-04-27T10:00:33.256Z,421.88
2018-04-27T10:01:33.181Z,416.25
2018-04-27T10:02:33.108Z,405.00
2018-04-27T10:03:33.031Z,399.38
2018-04-27T10:04:32.957Z,399.38
2018-04-27T10:05:32.881Z,393.75
2018-04-27T10:06:32.807Z,399.38
2018-04-27T10:07:32.742Z,399.38
2018-04-27T10:08:32.656Z,405.00
2018-04-27T10:09:32.582Z,410.63
2018-04-27T10:10:32.507Z,421.88
2018-04-27T10:11:32.432Z,421.88
2018-04-27T10:12:32.357Z,427.50
2018-04-27T10:13:32.282Z,427.50
2018-04-27T10:14:32.208Z,433.13
2018-04-27T10:15:32.137Z,427.50
2018-04-27T10:16:32.058Z,483.75
2018-04-27T10:17:31.984Z,495.00
2018-04-27T10:18:31.895Z,540.00
2018-04-27T10:19:31.820Z,573.75
2018-04-27T10:20:31.749Z,590.63
2018-04-27T10:21:31.683Z,601.88
2018-04-27T10:22:31.595Z,573.75
2018-04-27T10:23:31.520Z,528.75
2018-04-27T10:26:55.611Z,388.13
2018-04-27T10:27:55.547Z,348.75
2018-04-27T10:28:55.461Z,354.38
2018-04-27T10:29:55.387Z,388.13
2018-04-27T10:30:55.313Z,483.75
2018-04-27T10:31:55.235Z,517.50
2018-04-27T10:32:55.160Z,517.50
2018-04-27T10:33:55.088Z,517.50
2018-04-27T10:34:55.010Z,500.63
2018-04-27T10:35:54.934Z,506.25
2018-04-27T10:36:54.860Z,461.25
2018-04-27T10:37:54.785Z,506.25
2018-04-27T10:38:54.698Z,495.00
2018-04-27T10:39:54.634Z,511.88
2018-04-27T10:40:54.547Z,540.00
2018-04-27T10:41:54.472Z,562.50
2018-04-27T10:42:54.399Z,562.50
2018-04-27T10:43:54.322Z,551.25
2018-04-27T10:44:54.247Z,596.25
2018-04-27T10:45:54.172Z,900.00
2018-04-27T10:46:54.097Z,669.38
2018-04-27T10:47:54.023Z,646.88
2018-04-27T10:48:53.948Z,652.50
2018-04-27T10:49:53.871Z,1006.88
2018-04-27T10:50:53.797Z,2053.13
2018-04-27T10:51:53.722Z,1974.38
2018-04-27T10:52:53.647Z,2008.13
2018-04-27T10:53:53.572Z,1991.25
2018-04-27T10:54:53.498Z,2008.13
2018-04-27T10:55:53.423Z,2019.38
2018-04-27T10:56:53.351Z,2047.50
2018-04-27T10:57:53.285Z,2036.25
2018-04-27T10:58:53.210Z,2025.00
2018-04-27T10:59:53.137Z,2047.50
2018-04-27T11:00:53.062Z,2070.00
2018-04-27T11:01:52.998Z,2120.63
2018-04-27T11:02:52.927Z,2086.88
2018-04-27T11:03:52.862Z,2300.63
2018-04-27T11:04:52.788Z,3836.25
2018-04-27T11:05:52.724Z,4297.50
2018-04-27T11:06:52.649Z,3549.38
2018-04-27T11:07:52.588Z,3459.38
2018-04-27T11:08:52.514Z,3346.88
2018-04-27T11:09:52.454Z,472.50
2018-04-27T11:10:52.417Z,438.75
2018-04-27T11:11:52.314Z,427.50
2018-04-27T11:12:52.251Z,483.75
2018-04-27T11:13:52.176Z,624.38
2018-04-27T11:14:52.114Z,888.75
2018-04-27T11:15:52.056Z,3526.88
2018-04-27T11:16:52.175Z,3909.38
2018-04-27T11:17:51.915Z,2868.75
2018-04-27T11:18:51.840Z,4083.75
2018-04-27T11:19:51.783Z,2013.75
2018-04-27T11:20:51.704Z,3780.00
2018-04-27T11:21:51.648Z,3853.13
2018-04-27T11:22:51.578Z,4066.88
2018-04-27T11:23:51.502Z,4005.00
2018-04-27T11:24:51.445Z,3864.38
2018-04-27T11:25:51.370Z,4111.88
2018-04-27T11:26:51.303Z,4179.38
2018-04-27T11:27:51.229Z,4089.38
2018-04-27T11:28:51.168Z,4078.13
2018-04-27T11:29:51.104Z,4078.13
2018-04-27T11:30:51.034Z,4055.63
2018-04-27T11:31:50.969Z,4106.25
2018-04-27T11:32:50.892Z,4140.00
2018-04-27T11:33:50.833Z,4044.38
2018-04-27T11:34:50.769Z,4033.13
2018-04-27T11:35:50.693Z,4100.63
2018-04-27T11:36:50.630Z,4145.63
2018-04-27T11:37:50.569Z,3915.00
2018-04-27T11:38:50.493Z,3971.25
2018-04-27T11:39:50.431Z,3993.75
2018-04-27T11:40:50.369Z,742.50
2018-04-27T11:41:50.306Z,736.88
2018-04-27T11:42:50.231Z,3982.50
2018-04-27T11:43:50.170Z,3076.88
2018-04-27T11:44:50.106Z,3313.13
2018-04-27T11:45:50.031Z,765.00
2018-04-27T11:46:49.969Z,1771.88
2018-04-27T11:47:49.959Z,2250.00
2018-04-27T11:48:49.831Z,3223.13
2018-04-27T11:49:49.770Z,3420.00
2018-04-27T11:50:49.707Z,3279.38
2018-04-27T11:51:49.632Z,3566.25
2018-04-27T11:52:49.569Z,2458.13
2018-04-27T11:53:49.497Z,3268.13
2018-04-27T11:54:49.431Z,3431.25
2018-04-27T11:55:49.358Z,1006.88
2018-04-27T11:56:49.295Z,1096.88
2018-04-27T11:57:49.232Z,1012.50
2018-04-27T11:58:49.161Z,939.38
2018-04-27T11:59:49.095Z,961.88
2018-04-27T12:00:49.059Z,2891.25
2018-04-27T12:01:49.020Z,3268.13
2018-04-27T12:02:48.884Z,3088.13
2018-04-27T12:03:48.820Z,3256.88
2018-04-27T12:04:48.749Z,3110.63
2018-04-27T12:05:48.684Z,3285.00
2018-04-27T12:06:48.607Z,3054.38
2018-04-27T12:07:48.546Z,2598.75
2018-04-27T12:08:48.470Z,2497.50
2018-04-27T12:09:48.409Z,2435.63
2018-04-27T12:10:48.333Z,2475.00
2018-04-27T12:11:48.271Z,2520.00
2018-04-27T12:12:48.197Z,2413.13
2018-04-27T12:13:48.133Z,2401.88
2018-04-27T12:14:48.058Z,2458.13
2018-04-27T12:15:47.984Z,2761.88
2018-04-27T12:16:47.922Z,2925.00
2018-04-27T12:17:47.846Z,3031.88
2018-04-27T12:18:47.784Z,3341.25
2018-04-27T12:19:47.710Z,3285.00
2018-04-27T12:20:47.647Z,2829.38
2018-04-27T12:21:47.577Z,2891.25
2018-04-27T12:22:47.508Z,3150.00
2018-04-27T12:23:47.435Z,3296.25
2018-04-27T12:24:47.372Z,3099.38
2018-04-27T12:25:47.298Z,2868.75
2018-04-27T12:26:47.236Z,2795.63
2018-04-27T12:27:47.160Z,2790.00
2018-04-27T12:28:47.097Z,2278.13
2018-04-27T12:29:47.023Z,2576.25
2018-04-27T12:30:46.967Z,2300.63
2018-04-27T12:31:46.973Z,2216.25
2018-04-27T12:32:46.827Z,2244.38
2018-04-27T12:33:46.777Z,2137.50
2018-04-27T12:34:46.687Z,2143.13
2018-04-27T12:35:46.624Z,2103.75
2018-04-27T12:36:46.548Z,1878.75
2018-04-27T12:37:46.485Z,2109.38
2018-04-27T12:38:46.495Z,939.38
2018-04-27T12:39:46.352Z,1040.63
2018-04-27T12:40:46.315Z,860.63
2018-04-27T12:41:46.211Z,843.75
2018-04-27T12:42:46.140Z,877.50
2018-04-27T12:43:46.077Z,883.13
2018-04-27T12:44:46.005Z,877.50
2018-04-27T12:45:45.938Z,945.00
2018-04-27T12:46:45.875Z,2266.88
2018-04-27T12:47:45.786Z,2086.88
2018-04-27T12:48:45.726Z,2238.75
2018-04-27T12:49:45.650Z,2503.13
2018-04-27T12:50:45.576Z,2205.00
2018-04-27T12:51:45.512Z,2362.50
2018-04-27T12:52:45.438Z,2525.63
2018-04-27T12:53:45.376Z,2790.00
2018-04-27T12:54:45.288Z,2621.25
2018-04-27T12:55:45.226Z,2497.50
2018-04-27T12:56:45.151Z,2610.00
2018-04-27T12:57:45.077Z,2587.50
2018-04-27T12:58:45.013Z,2565.00
2018-04-27T12:59:44.950Z,2233.13
2018-04-27T13:00:44.877Z,2227.50
2018-04-27T13:01:44.801Z,2289.38
2018-04-27T13:02:44.727Z,2165.63
2018-04-27T13:03:44.664Z,798.75
2018-04-27T13:04:44.590Z,646.88
2018-04-27T13:05:44.513Z,607.50
2018-04-27T13:06:44.453Z,663.75
2018-04-27T13:07:44.378Z,990.00
2018-04-27T13:08:44.302Z,590.63
2018-04-27T13:09:44.239Z,562.50
2018-04-27T13:10:44.164Z,607.50
2018-04-27T13:11:44.090Z,1389.38
2018-04-27T13:12:44.016Z,1136.25
2018-04-27T13:13:43.954Z,1068.75
2018-04-27T13:14:43.879Z,1158.75
2018-04-27T13:15:43.804Z,1108.13
2018-04-27T13:16:43.728Z,973.13
2018-04-27T13:17:43.670Z,652.50
2018-04-27T13:18:43.591Z,635.63
2018-04-27T13:19:43.515Z,669.38
2018-04-27T13:20:43.444Z,1299.38
2018-04-27T13:21:43.365Z,731.25
2018-04-27T13:22:43.291Z,725.63
2018-04-27T13:23:43.220Z,731.25
2018-04-27T13:24:43.154Z,720.00
2018-04-27T13:25:43.086Z,697.50
2018-04-27T13:26:43.005Z,663.75
2018-04-27T13:27:42.929Z,635.63
2018-04-27T13:28:42.855Z,641.25
2018-04-27T13:29:42.784Z,663.75
2018-04-27T13:30:42.704Z,883.13
2018-04-27T13:31:42.629Z,787.50
2018-04-27T13:32:42.566Z,742.50
2018-04-27T13:33:42.491Z,731.25
2018-04-27T13:34:42.416Z,742.50
2018-04-27T13:35:42.343Z,736.88
2018-04-27T13:36:42.281Z,731.25
2018-04-27T13:37:42.192Z,736.88
2018-04-27T13:38:42.118Z,753.75
2018-04-27T13:39:42.042Z,759.38
2018-04-27T13:40:41.971Z,753.75
2018-04-27T13:41:41.892Z,725.63
2018-04-27T13:42:41.817Z,714.38
2018-04-27T13:43:41.743Z,703.13
2018-04-27T13:44:41.668Z,714.38
2018-04-27T13:45:41.593Z,714.38
2018-04-27T13:46:41.532Z,680.63
2018-04-27T13:47:41.444Z,646.88
2018-04-27T13:48:41.370Z,613.13
2018-04-27T13:49:41.306Z,573.75
2018-04-27T13:50:41.233Z,551.25
2018-04-27T13:51:41.159Z,551.25
2018-04-27T13:52:41.082Z,573.75
2018-04-27T13:53:41.007Z,613.13
2018-04-27T13:54:40.932Z,658.13
2018-04-27T13:55:40.858Z,675.00
2018-04-27T13:56:40.782Z,691.88
2018-04-27T13:57:40.711Z,680.63
2018-04-27T13:58:40.633Z,680.63
2018-04-27T13:59:40.558Z,703.13
2018-04-27T14:00:40.487Z,731.25
2018-04-27T14:01:40.408Z,753.75
2018-04-27T14:02:40.389Z,753.75
2018-04-27T14:03:40.258Z,720.00
2018-04-27T14:04:40.183Z,663.75
2018-04-27T14:05:40.190Z,613.13
2018-04-27T14:06:40.034Z,568.13
2018-04-27T14:07:39.958Z,528.75
2018-04-27T14:08:39.884Z,506.25
2018-04-27T14:09:39.885Z,506.25
2018-04-27T14:10:39.734Z,517.50
2018-04-27T14:11:39.662Z,534.38
2018-04-27T14:12:39.584Z,551.25
2018-04-27T14:13:39.510Z,585.00
2018-04-27T14:14:39.434Z,601.88
2018-04-27T14:15:39.361Z,613.13
2018-04-27T14:16:39.285Z,607.50
2018-04-27T14:17:39.219Z,585.00
2018-04-27T14:18:39.135Z,562.50
2018-04-27T14:19:39.061Z,528.75
2018-04-27T14:20:38.985Z,500.63
2018-04-27T14:21:38.914Z,483.75
2018-04-27T14:22:38.836Z,495.00
2018-04-27T14:23:38.761Z,562.50
2018-04-27T14:24:38.698Z,646.88
2018-04-27T14:25:38.622Z,691.88
2018-04-27T14:26:38.549Z,675.00
2018-04-27T14:27:38.473Z,658.13
2018-04-27T14:28:38.398Z,618.75
2018-04-27T14:29:38.340Z,590.63
2018-04-27T14:30:38.252Z,556.88
2018-04-27T14:31:38.174Z,540.00
2018-04-27T14:32:38.098Z,523.13
2018-04-27T14:33:38.023Z,506.25
2018-04-27T14:34:37.950Z,500.63
2018-04-27T14:35:37.873Z,489.38
2018-04-27T14:36:37.812Z,495.00
2018-04-27T14:37:37.727Z,483.75
2018-04-27T14:38:37.649Z,472.50
2018-04-27T14:39:37.573Z,472.50
2018-04-27T14:40:37.512Z,478.13
2018-04-27T14:41:37.424Z,466.88
2018-04-27T14:42:37.349Z,433.13
2018-04-27T14:43:37.274Z,405.00
2018-04-27T14:44:37.200Z,388.13
2018-04-27T14:45:37.128Z,388.13
2018-04-27T14:46:37.072Z,399.38
2018-04-27T14:47:36.964Z,416.25
2018-04-27T14:48:36.899Z,433.13
2018-04-27T14:49:36.813Z,444.38
2018-04-27T14:50:36.738Z,444.38
2018-04-27T14:51:36.663Z,450.00
2018-04-27T14:52:36.603Z,450.00
2018-04-27T14:53:36.518Z,450.00
2018-04-27T14:54:36.439Z,427.50
2018-04-27T14:55:36.363Z,410.63
2018-04-27T14:56:36.288Z,399.38
2018-04-27T14:57:36.215Z,393.75
2018-04-27T14:58:36.141Z,388.13
2018-04-27T14:59:36.075Z,382.50
2018-04-27T15:00:35.989Z,371.25
2018-04-27T15:01:35.922Z,365.63
2018-04-27T15:02:35.839Z,388.13
2018-04-27T15:03:35.766Z,416.25
2018-04-27T15:04:35.689Z,427.50
2018-04-27T15:05:35.614Z,427.50
2018-04-27T15:06:35.539Z,416.25
2018-04-27T15:07:35.464Z,388.13
2018-04-27T15:08:35.390Z,399.38
2018-04-27T15:09:35.304Z,399.38
2018-04-27T15:10:35.227Z,360.00
2018-04-27T15:11:35.152Z,331.88
2018-04-27T15:12:35.091Z,315.00
2018-04-27T15:13:35.002Z,320.63
2018-04-27T15:14:34.928Z,320.63
2018-04-27T15:15:34.852Z,303.75
2018-04-27T15:16:34.777Z,298.13
2018-04-27T15:17:34.702Z,292.50
2018-04-27T15:18:34.627Z,292.50
2018-04-27T15:19:34.552Z,292.50
2018-04-27T15:20:34.491Z,281.25
2018-04-27T15:21:34.403Z,286.88
2018-04-27T15:22:34.331Z,281.25
2018-04-27T15:23:34.241Z,275.63
2018-04-27T15:24:34.167Z,270.00
2018-04-27T15:25:34.091Z,281.25
2018-04-27T15:26:34.020Z,298.13
2018-04-27T15:27:33.948Z,309.38
2018-04-27T15:28:33.867Z,315.00
2018-04-27T15:29:33.792Z,326.25
2018-04-27T15:30:33.718Z,331.88
2018-04-27T15:31:33.642Z,326.25
2018-04-27T15:32:33.569Z,309.38
2018-04-27T15:33:33.481Z,298.13
2018-04-27T15:34:33.404Z,281.25
2018-04-27T15:35:33.329Z,270.00
2018-04-27T15:36:33.254Z,253.13
2018-04-27T15:37:33.179Z,230.63
2018-04-27T15:38:33.107Z,213.75
2018-04-27T15:39:33.029Z,208.13
2018-04-27T15:40:32.956Z,208.13
2018-04-27T15:41:32.880Z,208.13
2018-04-27T15:42:32.805Z,208.13
2018-04-27T15:43:32.729Z,208.13
2018-04-27T15:44:32.643Z,213.75
2018-04-27T15:45:32.568Z,219.38
2018-04-27T15:46:32.495Z,225.00
2018-04-27T15:47:32.423Z,225.00
2018-04-27T15:48:32.345Z,225.00
2018-04-27T15:49:32.269Z,225.00
2018-04-27T15:50:32.194Z,219.38
2018-04-27T15:51:32.119Z,225.00
2018-04-27T15:52:32.038Z,225.00
2018-04-27T15:53:31.957Z,230.63
2018-04-27T15:54:31.881Z,236.25
2018-04-27T15:55:31.806Z,258.75
2018-04-27T15:56:31.731Z,270.00
2018-04-27T15:57:31.665Z,275.63
2018-04-27T15:58:31.585Z,270.00
2018-04-27T15:59:31.507Z,270.00
2018-04-27T16:00:31.421Z,270.00
2018-04-27T16:01:31.345Z,258.75
2018-04-27T16:02:31.270Z,270.00
2018-04-27T16:03:31.195Z,292.50
2018-04-27T16:04:31.120Z,303.75
2018-04-27T16:05:31.047Z,303.75
2018-04-27T16:06:30.972Z,309.38
2018-04-27T16:07:30.896Z,320.63
2018-04-27T16:08:30.820Z,309.38
2018-04-27T16:09:30.787Z,286.88
2018-04-27T16:10:30.658Z,281.25
2018-04-27T16:11:30.583Z,275.63
2018-04-27T16:12:30.508Z,281.25
2018-04-27T16:13:30.434Z,275.63
2018-04-27T16:14:30.358Z,258.75
2018-04-27T16:15:30.283Z,253.13
2018-04-27T16:16:30.197Z,241.88
2018-04-27T16:17:30.121Z,230.63
2018-04-27T16:18:30.048Z,230.63
2018-04-27T16:19:29.971Z,225.00
2018-04-27T16:20:29.897Z,219.38
2018-04-27T16:21:29.823Z,208.13
2018-04-27T16:22:29.750Z,202.50
2018-04-27T16:23:29.672Z,196.88
2018-04-27T16:24:29.603Z,191.25
2018-04-27T16:25:29.510Z,185.63
2018-04-27T16:26:29.438Z,196.88
2018-04-27T16:27:29.373Z,202.50
2018-04-27T16:28:29.284Z,219.38
2018-04-27T16:29:29.210Z,219.38
2018-04-27T16:30:29.135Z,225.00
2018-04-27T16:31:29.061Z,225.00
2018-04-27T16:32:28.986Z,236.25
2018-04-27T16:33:28.900Z,236.25
2018-04-27T16:34:28.824Z,230.63
2018-04-27T16:35:28.749Z,225.00
2018-04-27T16:36:28.674Z,219.38
2018-04-27T16:37:28.600Z,225.00
2018-04-27T16:38:28.525Z,219.38
2018-04-27T16:39:28.449Z,213.75
2018-04-27T16:40:28.362Z,213.75
2018-04-27T16:41:28.301Z,202.50
2018-04-27T16:42:28.212Z,185.63
2018-04-27T16:43:28.136Z,185.63
2018-04-27T16:44:28.061Z,185.63
2018-04-27T16:45:28.000Z,185.63
2018-04-27T16:46:27.913Z,180.00
2018-04-27T16:47:27.838Z,174.38
2018-04-27T16:48:27.762Z,180.00
2018-04-27T16:49:27.676Z,180.00
2018-04-27T16:50:27.600Z,174.38
2018-04-27T16:51:27.525Z,174.38
2018-04-27T16:52:27.451Z,174.38
2018-04-27T16:53:27.376Z,168.75
2018-04-27T16:54:27.378Z,163.13
2018-04-27T16:55:27.212Z,157.50
2018-04-27T16:56:27.138Z,163.13
2018-04-27T16:57:27.064Z,168.75
2018-04-27T16:58:27.001Z,163.13
2018-04-27T16:59:26.913Z,157.50
2018-04-27T17:00:26.838Z,140.63
2018-04-27T17:01:26.768Z,135.00
2018-04-27T17:02:26.677Z,129.38
2018-04-27T17:03:26.603Z,123.75
2018-04-27T17:04:26.533Z,123.75
2018-04-27T17:05:26.452Z,123.75
2018-04-27T17:06:26.377Z,123.75
2018-04-27T17:07:26.291Z,129.38
2018-04-27T17:08:26.214Z,135.00
2018-04-27T17:09:26.179Z,140.63
2018-04-27T17:10:26.064Z,146.25
2018-04-27T17:11:25.992Z,146.25
2018-04-27T17:12:25.915Z,135.00
2018-04-27T17:13:25.916Z,129.38
2018-04-27T17:14:25.787Z,135.00
2018-04-27T17:15:25.679Z,135.00
2018-04-27T17:16:25.605Z,135.00
2018-04-27T17:17:25.528Z,129.38
2018-04-27T17:18:25.453Z,123.75
2018-04-27T17:19:25.426Z,112.50
2018-04-27T17:20:25.307Z,106.88
2018-04-27T17:21:25.216Z,90.00
2018-04-27T17:22:25.140Z,84.38
2018-04-27T17:23:25.066Z,84.38
2018-04-27T17:24:25.005Z,73.13
2018-04-27T17:25:24.909Z,73.13
2018-04-27T17:26:24.829Z,67.50
2018-04-27T17:27:24.765Z,67.50
2018-04-27T17:28:24.681Z,67.50
2018-04-27T17:29:24.605Z,67.50
2018-04-27T17:30:24.531Z,67.50
2018-04-27T17:31:24.441Z,73.13
2018-04-27T17:32:24.367Z,67.50
2018-04-27T17:33:24.305Z,73.13
2018-04-27T17:34:24.225Z,73.13
2018-04-27T17:35:24.181Z,78.75
2018-04-27T17:36:24.067Z,78.75
2018-04-27T17:37:23.980Z,84.38
2018-04-27T17:38:23.906Z,78.75
2018-04-27T17:39:23.831Z,67.50
2018-04-27T17:40:23.802Z,61.88
2018-04-27T17:41:23.682Z,56.25
2018-04-27T17:42:23.593Z,56.25
2018-04-27T17:43:23.597Z,50.63
2018-04-27T17:44:23.498Z,50.63
2018-04-27T17:45:23.368Z,45.00
2018-04-27T17:46:23.293Z,45.00
2018-04-27T17:47:23.207Z,45.00
2018-04-27T17:48:23.132Z,39.38
2018-04-27T17:49:23.060Z,39.38
2018-04-27T17:50:22.987Z,33.75
2018-04-27T17:51:22.895Z,33.75
2018-04-27T17:52:22.821Z,33.75
2018-04-27T17:53:22.751Z,33.75
2018-04-27T17:54:22.669Z,33.75
2018-04-27T17:55:22.594Z,28.13
2018-04-27T17:56:22.507Z,28.13
2018-04-27T17:57:22.434Z,28.13
2018-04-27T17:58:22.358Z,28.13
2018-04-27T17:59:22.355Z,22.50
2018-04-27T18:00:22.208Z,22.50
2018-04-27T18:01:22.122Z,22.50
2018-04-27T18:02:22.045Z,22.50
2018-04-27T18:03:21.982Z,22.50
2018-04-27T18:04:21.895Z,22.50
2018-04-27T18:05:21.820Z,16.88
2018-04-27T18:06:21.745Z,16.88
2018-04-27T18:07:21.659Z,16.88
2018-04-27T18:08:21.584Z,16.88
2018-04-27T18:09:21.509Z,16.88
2018-04-27T18:10:21.421Z,16.88
2018-04-27T18:11:21.346Z,16.88
2018-04-27T18:12:21.284Z,11.25
2018-04-27T18:13:21.185Z,11.25
2018-04-27T18:14:21.112Z,11.25
2018-04-27T18:15:21.035Z,11.25
2018-04-27T18:16:20.960Z,11.25
2018-04-27T18:17:20.873Z,11.25
2018-04-27T18:18:20.796Z,11.25
2018-04-27T18:19:20.722Z,11.25
2018-04-27T18:20:20.655Z,11.25
2018-04-27T18:21:20.561Z,11.25
2018-04-27T18:22:20.486Z,5.63
2018-04-27T18:23:20.410Z,5.63
2018-04-27T18:24:20.335Z,5.63
2018-04-27T18:25:20.249Z,5.63
2018-04-27T18:26:20.172Z,5.63
2018-04-27T18:27:20.101Z,5.63
2018-04-27T18:28:20.023Z,5.63
2018-04-27T18:29:19.936Z,0.00
2018-04-27T18:30:19.863Z,0.00
2018-04-27T18:31:19.787Z,0.00
2018-04-27T18:32:19.711Z,0.00
2018-04-27T18:33:19.677Z,0.00
2018-04-27T18:34:19.549Z,0.00
2018-04-27T18:35:19.474Z,0.00
2018-04-27T18:36:19.399Z,0.00
2018-04-27T18:37:19.311Z,0.00
2018-04-27T18:38:19.236Z,0.00
2018-04-27T18:39:19.183Z,0.00
2018-04-27T18:40:19.079Z,0.00
2018-04-27T18:41:19.000Z,0.00
2018-04-27T18:42:18.939Z,0.00
2018-04-27T18:43:18.854Z,0.00
2018-04-27T18:44:18.766Z,0.00
2018-04-27T18:45:18.690Z,0.00
2018-04-27T18:46:18.614Z,0.00
2018-04-27T18:47:18.540Z,0.00
2018-04-27T18:48:18.450Z,0.00
2018-04-27T18:49:18.375Z,0.00
2018-04-27T18:50:18.303Z,0.00
2018-04-27T18:51:18.213Z,0.00
2018-04-27T18:52:18.139Z,0.00
2018-04-27T18:53:18.069Z,0.00
2018-04-27T18:54:17.975Z,0.00
2018-04-27T18:55:17.904Z,0.00
2018-04-27T18:56:17.839Z,0.00
2018-04-27T18:57:17.772Z,0.00
2018-04-27T18:58:17.665Z,0.00
2018-04-27T18:59:17.589Z,0.00
2018-04-27T19:00:17.515Z,0.00
2018-04-27T19:01:17.494Z,0.00
2018-04-27T19:02:17.352Z,0.00
2018-04-27T19:03:17.279Z,0.00
2018-04-27T19:04:17.194Z,0.00
2018-04-27T19:05:17.116Z,0.00
2018-04-27T19:06:17.040Z,0.00
2018-04-27T19:07:16.952Z,0.00
2018-04-27T19:08:16.877Z,0.00
2018-04-27T19:09:16.802Z,0.00
2018-04-27T19:10:16.727Z,0.00
2018-04-27T19:11:16.640Z,0.00
2018-04-27T19:12:16.566Z,0.00
2018-04-27T19:13:16.479Z,0.00
2018-04-27T19:14:16.435Z,0.00
2018-04-27T19:15:16.329Z,0.00
2018-04-27T19:16:16.241Z,0.00
2018-04-27T19:17:16.166Z,0.00
2018-04-27T19:18:16.091Z,0.00
2018-04-27T19:19:16.007Z,0.00
2018-04-27T19:20:15.928Z,0.00
2018-04-27T19:21:15.853Z,0.00
2018-04-27T19:22:15.768Z,0.00
2018-04-27T19:23:15.697Z,0.00
2018-04-27T19:24:15.616Z,0.00
2018-04-27T19:25:15.532Z,0.00
2018-04-27T19:26:15.453Z,0.00
2018-04-27T19:27:15.379Z,0.00
2018-04-27T19:28:15.292Z,0.00
2018-04-27T19:29:15.220Z,0.00
2018-04-27T19:30:15.146Z,0.00
2018-04-27T19:31:15.056Z,0.00
2018-04-27T19:32:14.979Z,0.00
2018-04-27T19:33:14.906Z,0.00
2018-04-27T19:34:14.817Z,0.00
2018-04-27T19:35:14.743Z,0.00
2018-04-27T19:36:14.656Z,0.00
2018-04-27T19:37:14.580Z,0.00